createdAt,value
2023-01-09T04:01:55.549Z,7.52
2023-01-09T04:05:06.246Z,7.55
2023-01-09T04:08:16.813Z,7.53
2023-01-09T04:11:26.887Z,7.38
2023-01-09T04:14:36.900Z,7.29
2023-01-09T04:17:48.164Z,7.22
2023-01-09T04:20:58.236Z,7.17
2023-01-09T04:24:08.823Z,7.13
2023-01-09T04:27:18.939Z,7.14
2023-01-09T04:30:28.880Z,7.09
2023-01-09T04:33:40.506Z,7.02
2023-01-09T04:36:50.464Z,7.00
2023-01-09T04:40:00.488Z,6.94
2023-01-09T04:43:10.421Z,6.89
2023-01-09T04:46:20.421Z,6.88
2023-01-09T04:49:31.934Z,6.85
2023-01-09T04:52:42.053Z,6.74
2023-01-09T04:55:51.984Z,6.73
2023-01-09T04:59:01.999Z,6.65
2023-01-09T05:02:12.288Z,6.58
2023-01-09T05:05:23.995Z,6.62
2023-01-09T05:08:33.975Z,6.49
2023-01-09T05:11:43.952Z,6.45
2023-01-09T05:14:54.003Z,6.47
2023-01-09T05:18:04.160Z,6.41
2023-01-09T05:21:15.913Z,6.40
2023-01-09T05:24:25.891Z,6.37
2023-01-09T05:27:35.979Z,6.27
2023-01-09T05:30:48.270Z,6.22
2023-01-09T05:33:59.334Z,6.15
2023-01-09T05:37:10.754Z,6.17
2023-01-09T05:40:23.040Z,6.22
2023-01-09T05:43:33.258Z,6.19
2023-01-09T05:46:43.200Z,6.28
2023-01-09T05:49:53.346Z,6.38
2023-01-09T05:53:04.721Z,6.42
2023-01-09T05:56:14.985Z,6.45
2023-01-09T05:59:25.121Z,6.48
2023-01-09T06:02:35.457Z,6.56
2023-01-09T06:05:45.742Z,6.60
2023-01-09T06:08:57.049Z,6.58
2023-01-09T06:12:07.457Z,6.54
2023-01-09T06:15:17.612Z,6.58
2023-01-09T06:18:27.727Z,6.56
2023-01-09T06:21:37.845Z,6.58
2023-01-09T06:24:49.299Z,6.45
2023-01-09T06:27:59.273Z,6.52
2023-01-09T06:31:09.410Z,6.50
2023-01-09T06:34:19.523Z,6.59
2023-01-09T06:37:29.678Z,6.52
2023-01-09T06:40:41.030Z,6.44
2023-01-09T06:43:51.010Z,6.50
2023-01-09T06:47:01.067Z,6.41
2023-01-09T06:50:11.931Z,6.45
2023-01-09T06:53:22.174Z,6.47
2023-01-09T06:56:33.674Z,6.47
2023-01-09T06:59:43.719Z,6.43
2023-01-09T07:02:53.818Z,6.40
2023-01-09T07:06:06.719Z,6.39
2023-01-09T07:09:16.843Z,6.41
2023-01-09T07:12:28.252Z,6.40
2023-01-09T07:15:38.493Z,6.41
2023-01-09T07:18:48.800Z,6.33
2023-01-09T07:21:58.744Z,6.35
2023-01-09T07:25:09.264Z,6.35
2023-01-09T07:28:20.670Z,6.41
2023-01-09T07:31:30.677Z,6.44
2023-01-09T07:34:40.798Z,6.43
2023-01-09T07:37:50.928Z,6.41
2023-01-09T07:41:01.003Z,6.45
2023-01-09T07:44:12.836Z,6.44
2023-01-09T11:34:05.653Z,8.71
2023-01-09T11:37:27.766Z,8.82
2023-01-09T11:40:46.972Z,8.73
2023-01-09T11:44:02.566Z,8.69
2023-01-09T11:47:27.657Z,8.72
2023-01-09T11:50:39.338Z,8.72
2023-01-09T11:54:01.917Z,8.77
2023-01-09T11:57:13.644Z,9.24
2023-01-09T12:00:27.445Z,9.36
2023-01-09T12:03:53.410Z,9.15
2023-01-09T12:07:22.214Z,9.36
2023-01-09T12:10:49.077Z,9.54
2023-01-09T12:14:19.219Z,9.42
2023-01-09T12:17:47.610Z,9.33
2023-01-09T12:21:12.798Z,9.08
2023-01-09T12:24:41.573Z,8.69
2023-01-09T12:28:12.145Z,8.75
2023-01-09T12:31:36.679Z,8.79
2023-01-09T12:34:56.208Z,8.72
2023-01-09T12:38:22.159Z,9.04
2023-01-09T12:41:49.454Z,8.98
2023-01-09T12:45:05.087Z,8.93
2023-01-09T12:48:28.516Z,9.12
2023-01-09T12:51:43.234Z,9.12
2023-01-09T12:54:58.144Z,9.05
2023-01-09T12:58:17.432Z,8.94
2023-01-09T13:01:33.387Z,8.97
2023-01-09T13:04:50.379Z,8.90
2023-01-09T13:08:04.446Z,9.00
2023-01-09T13:11:21.003Z,8.64
2023-01-09T13:14:45.676Z,8.41
2023-01-09T13:18:01.349Z,8.27
2023-01-09T13:21:13.860Z,8.08
2023-01-09T13:24:30.803Z,8.03
2023-01-09T13:27:42.506Z,8.22
2023-01-09T13:31:10.308Z,8.31
2023-01-09T13:34:23.016Z,8.43
2023-01-09T13:37:35.539Z,8.38
2023-01-09T13:40:45.610Z,8.05
2023-01-09T13:43:58.131Z,8.10
2023-01-09T13:47:17.655Z,8.00
2023-01-09T13:50:28.792Z,7.79
2023-01-09T13:53:48.431Z,7.36
2023-01-09T13:57:25.240Z,7.37
2023-01-09T14:00:50.147Z,7.60
2023-01-09T14:04:37.382Z,7.82
2023-01-09T14:07:49.605Z,7.85
2023-01-09T14:11:02.080Z,7.80
2023-01-09T14:14:26.760Z,7.74
2023-01-09T14:17:38.786Z,7.55
2023-01-09T14:20:59.038Z,7.52
2023-01-09T14:24:13.278Z,7.47
2023-01-09T14:27:47.207Z,7.33
2023-01-09T14:31:06.582Z,7.27
2023-01-09T14:34:32.514Z,6.91
2023-01-09T14:37:47.109Z,6.91
2023-01-09T14:41:01.908Z,6.80
2023-01-09T14:44:26.835Z,6.77
2023-01-09T14:47:42.894Z,6.72
2023-01-09T14:50:55.857Z,6.69
2023-01-09T14:54:29.077Z,6.58
2023-01-09T14:57:39.298Z,6.65
2023-01-09T15:00:53.874Z,6.48
2023-01-09T15:04:07.752Z,6.35
2023-01-09T15:07:23.575Z,6.31
2023-01-09T15:10:38.246Z,6.38
2023-01-09T15:13:51.349Z,6.51
2023-01-09T15:17:02.274Z,6.50
2023-01-09T15:20:19.593Z,6.49
2023-01-09T15:23:31.236Z,6.49
2023-01-09T15:26:42.622Z,6.62
2023-01-09T15:29:53.717Z,6.48
2023-01-09T15:33:08.646Z,6.45
2023-01-09T15:36:25.837Z,6.53
2023-01-09T15:39:39.807Z,6.61
2023-01-09T15:42:57.539Z,6.57
2023-01-09T15:46:08.242Z,6.57
2023-01-09T15:49:19.476Z,6.53
2023-01-09T15:52:30.119Z,6.48
2023-01-09T15:55:40.456Z,6.52
2023-01-09T15:58:52.864Z,6.48
2023-01-09T16:02:17.466Z,6.46
2023-01-09T16:05:28.188Z,6.52
2023-01-09T16:08:40.872Z,6.57
2023-01-09T16:11:53.832Z,6.46
2023-01-09T16:15:05.611Z,6.44
2023-01-09T16:18:23.040Z,6.48
2023-01-09T16:21:36.224Z,6.41
2023-01-09T16:24:48.550Z,6.44
2023-01-09T16:31:32.618Z,6.31
2023-01-09T16:34:44.286Z,6.35
2023-01-09T16:37:54.329Z,6.35
2023-01-09T16:41:17.070Z,6.35
2023-01-09T16:44:27.990Z,6.32
2023-01-09T16:47:39.372Z,6.31
2023-01-09T16:50:49.513Z,6.30
2023-01-09T16:53:59.665Z,6.25
2023-01-09T16:57:12.659Z,6.32
2023-01-09T17:00:22.950Z,6.39
2023-01-09T17:03:37.237Z,6.41
2023-01-09T17:06:48.871Z,6.43
2023-01-09T17:09:58.911Z,6.38
2023-01-09T17:13:08.860Z,6.39
2023-01-09T17:16:19.593Z,6.46
2023-01-09T17:19:30.856Z,6.40
2023-01-09T17:22:40.826Z,6.32
2023-01-09T17:26:05.754Z,6.25
2023-01-09T17:29:15.881Z,6.32
2023-01-09T17:32:25.978Z,6.31
2023-01-09T17:35:37.207Z,6.24
2023-01-09T17:38:47.380Z,6.18
2023-01-09T17:41:59.121Z,6.18
2023-01-09T17:45:09.630Z,6.14
2023-01-09T17:48:21.591Z,6.13
2023-01-09T17:51:33.229Z,6.14
2023-01-09T17:54:43.309Z,6.11
2023-01-09T17:57:53.428Z,6.14
2023-01-09T18:01:03.406Z,6.16
2023-01-09T18:04:13.453Z,6.24
2023-01-09T18:07:24.847Z,6.14
2023-01-09T18:10:34.959Z,6.04
2023-01-09T18:13:45.220Z,6.03
2023-01-09T18:16:55.363Z,6.03
2023-01-09T18:20:06.140Z,5.99
2023-01-09T18:23:18.463Z,5.87
2023-01-09T18:26:28.737Z,5.78
2023-01-09T18:29:38.825Z,5.72
2023-01-09T18:32:48.940Z,5.62
2023-01-09T18:36:07.489Z,5.62
2023-01-09T18:39:18.854Z,5.66
2023-01-09T18:42:28.830Z,5.70
2023-01-09T18:45:39.756Z,5.67
2023-01-09T18:48:52.579Z,5.61
2023-01-09T18:52:02.813Z,5.56
2023-01-09T18:55:14.339Z,5.60
2023-01-09T18:58:24.448Z,5.59
2023-01-09T19:01:34.718Z,5.52
2023-01-09T19:04:44.776Z,5.45
2023-01-09T19:07:55.085Z,5.52
2023-01-09T19:11:06.835Z,5.62
2023-01-09T19:14:16.973Z,5.69
2023-01-09T19:17:27.162Z,5.69
2023-01-09T19:20:39.270Z,5.72
2023-01-09T19:23:50.601Z,5.66
2023-01-09T19:27:01.856Z,5.60
2023-01-09T19:30:13.360Z,5.47
2023-01-09T19:33:24.600Z,5.45
2023-01-09T19:36:34.984Z,5.40
2023-01-09T19:39:46.670Z,5.35
2023-01-09T19:42:59.234Z,5.26
2023-01-09T19:46:10.811Z,5.29
2023-01-09T19:49:20.832Z,5.37
2023-01-09T19:52:31.074Z,5.44
2023-01-09T19:55:41.399Z,5.60
2023-01-09T19:58:54.894Z,5.70
2023-01-09T20:02:05.250Z,5.75
2023-01-09T20:05:15.320Z,5.77
2023-01-09T20:08:25.515Z,5.85
2023-01-09T20:11:35.683Z,5.90
2023-01-09T20:14:47.088Z,5.76
2023-01-09T20:17:57.048Z,5.86
2023-01-09T20:21:07.164Z,5.70
2023-01-09T20:24:17.779Z,5.79
2023-01-09T20:27:27.774Z,5.82
2023-01-09T20:30:42.805Z,5.78
2023-01-09T20:33:55.089Z,5.95
2023-01-09T20:37:05.223Z,6.05
2023-01-09T20:40:15.391Z,6.07
2023-01-09T20:43:26.517Z,5.97
2023-01-09T20:46:40.111Z,6.04
2023-01-09T20:49:50.132Z,6.16
2023-01-09T20:53:00.084Z,6.22
2023-01-09T20:56:10.743Z,6.09
2023-01-09T20:59:22.377Z,6.10
2023-01-09T21:02:34.073Z,6.17
2023-01-09T21:05:44.461Z,6.09
2023-01-09T21:08:54.556Z,6.06
2023-01-09T21:12:24.623Z,6.00
